createdAt,value
2018-01-02T00:00:26.655Z,99433.72
2018-01-02T00:02:55.020Z,99426.27
2018-01-02T00:05:23.369Z,99426.17
2018-01-02T00:07:51.813Z,99425.78
2018-01-02T00:10:20.212Z,99427.63
2018-01-02T00:12:48.560Z,99421.01
2018-01-02T00:15:16.968Z,99423.72
2018-01-02T00:17:45.361Z,99418.70
2018-01-02T00:20:13.741Z,99426.27
2018-01-02T00:22:42.164Z,99422.41
2018-01-02T00:25:10.588Z,99415.95
2018-01-02T00:27:39.850Z,99427.65
2018-01-02T00:30:08.229Z,99429.63
2018-01-02T00:32:36.633Z,99427.23
2018-01-02T00:35:05.034Z,99432.28
2018-01-02T00:37:33.396Z,99429.13
2018-01-02T00:40:01.780Z,99432.16
2018-01-02T00:42:30.119Z,99438.70
2018-01-02T00:44:58.472Z,99429.43
2018-01-02T00:47:26.872Z,99433.52
2018-01-02T00:49:55.280Z,99438.85
2018-01-02T00:52:23.660Z,99428.85
2018-01-02T00:54:52.007Z,99430.72
2018-01-02T00:57:21.270Z,99434.64
2018-01-02T00:59:49.620Z,99428.09
2018-01-02T01:02:17.981Z,99434.78
2018-01-02T01:04:46.326Z,99441.22
2018-01-02T01:07:15.164Z,99438.56
2018-01-02T01:09:43.527Z,99443.69
2018-01-02T01:12:11.907Z,99440.91
2018-01-02T01:14:40.259Z,99447.42
2018-01-02T01:17:08.605Z,99443.80
2018-01-02T01:19:37.028Z,99448.53
2018-01-02T01:22:05.433Z,99443.63
2018-01-02T01:24:33.782Z,99437.73
2018-01-02T01:27:02.176Z,99430.26
2018-01-02T01:29:30.573Z,99432.62
2018-01-02T01:31:58.954Z,99431.08
2018-01-02T01:34:27.308Z,99428.38
2018-01-02T01:36:55.656Z,99420.03
2018-01-02T01:39:24.400Z,99419.02
2018-01-02T01:41:52.753Z,99420.75
2018-01-02T01:44:21.155Z,99417.67
2018-01-02T01:46:49.535Z,99412.36
2018-01-02T01:49:18.190Z,99408.22
2018-01-02T01:51:46.597Z,99408.23
2018-01-02T01:54:14.948Z,99401.42
2018-01-02T01:56:43.354Z,99394.86
2018-01-02T01:59:11.720Z,99395.30
2018-01-02T02:01:40.075Z,99397.11
2018-01-02T02:04:08.456Z,99395.87
2018-01-02T02:06:36.796Z,99400.22
2018-01-02T02:09:05.136Z,99388.54
2018-01-02T02:11:33.493Z,99385.85
2018-01-02T02:14:01.896Z,99384.88
2018-01-02T02:16:30.246Z,99386.81
2018-01-02T02:18:58.596Z,99384.29
2018-01-02T02:21:27.340Z,99383.13
2018-01-02T02:23:55.728Z,99384.44
2018-01-02T02:26:24.091Z,99383.38
2018-01-02T02:28:52.456Z,99377.83
2018-01-02T02:31:20.813Z,99381.83
2018-01-02T02:33:49.554Z,99377.31
2018-01-02T02:36:17.915Z,99371.40
2018-01-02T02:38:46.273Z,99366.16
2018-01-02T02:41:14.621Z,99368.17
2018-01-02T02:43:43.466Z,99359.56
2018-01-02T02:46:11.821Z,99352.66
2018-01-02T02:48:40.160Z,99354.05
2018-01-02T02:51:08.520Z,99344.67
2018-01-02T02:53:36.865Z,99344.59
2018-01-02T02:56:05.214Z,99343.50
2018-01-02T02:58:33.558Z,99340.34
2018-01-02T03:01:02.025Z,99338.61
2018-01-02T03:03:30.368Z,99346.39
2018-01-02T03:05:58.729Z,99343.82
2018-01-02T03:08:27.315Z,99342.66
2018-01-02T03:10:55.731Z,99336.43
2018-01-02T03:13:24.212Z,99340.39
2018-01-02T03:15:52.552Z,99346.94
2018-01-02T03:18:20.896Z,99346.56
2018-01-02T03:20:49.277Z,99341.78
2018-01-02T03:23:17.760Z,99343.88
2018-01-02T03:25:46.104Z,99335.45
2018-01-02T03:28:14.439Z,99338.09
2018-01-02T03:30:42.805Z,99341.62
2018-01-02T03:33:11.580Z,99340.35
2018-01-02T03:35:40.143Z,99340.77
2018-01-02T03:38:08.574Z,99343.47
2018-01-02T03:40:37.408Z,99340.47
2018-01-02T03:43:05.891Z,99341.77
2018-01-02T03:45:34.237Z,99338.25
2018-01-02T03:48:02.576Z,99334.34
2018-01-02T03:50:31.135Z,99340.84
2018-01-02T03:52:59.485Z,99335.39
2018-01-02T03:55:28.023Z,99342.33
2018-01-02T03:57:56.359Z,99344.22
2018-01-02T04:00:24.702Z,99337.22
2018-01-02T04:02:53.071Z,99339.52
2018-01-02T04:05:21.884Z,99341.47
2018-01-02T04:07:50.284Z,99342.65
2018-01-02T04:10:18.644Z,99345.56
2018-01-02T04:12:47.059Z,99346.13
2018-01-02T04:15:15.413Z,99345.70
2018-01-02T04:17:44.511Z,99351.94
2018-01-02T04:20:12.895Z,99346.13
2018-01-02T04:22:41.280Z,99353.85
2018-01-02T04:25:09.729Z,99356.73
2018-01-02T04:27:38.068Z,99354.17
2018-01-02T04:30:06.423Z,99352.08
2018-01-02T04:32:34.783Z,99348.94
2018-01-02T04:35:03.888Z,99345.91
2018-01-02T04:37:32.267Z,99345.23
2018-01-02T04:40:00.617Z,99348.09
2018-01-02T04:42:28.988Z,99356.44
2018-01-02T04:44:57.334Z,99352.75
2018-01-02T04:47:26.092Z,99351.23
2018-01-02T04:49:54.476Z,99359.58
2018-01-02T04:52:22.849Z,99362.84
2018-01-02T04:54:51.204Z,99359.64
2018-01-02T04:57:19.578Z,99357.25
2018-01-02T04:59:47.932Z,99363.42
2018-01-02T05:02:16.683Z,99353.69
2018-01-02T05:04:45.038Z,99359.29
2018-01-02T05:07:13.435Z,99356.77
2018-01-02T05:09:41.791Z,99366.35
2018-01-02T05:12:10.149Z,99361.75
2018-01-02T05:14:38.566Z,99371.19
2018-01-02T05:17:06.947Z,99375.52
2018-01-02T05:19:35.327Z,99378.50
2018-01-02T05:22:04.607Z,99374.33
2018-01-02T05:24:32.961Z,99380.25
2018-01-02T05:27:01.507Z,99382.03
2018-01-02T05:29:29.863Z,99387.16
2018-01-02T05:31:58.233Z,99385.69
2018-01-02T05:34:26.621Z,99395.12
2018-01-02T05:36:54.974Z,99392.92
2018-01-02T05:39:23.987Z,99394.67
2018-01-02T05:41:52.361Z,99404.81
2018-01-02T05:44:20.711Z,99413.46
2018-01-02T05:46:49.079Z,99416.50
2018-01-02T05:49:17.843Z,99425.34
2018-01-02T05:51:46.288Z,99427.35
2018-01-02T05:54:14.644Z,99431.53
2018-01-02T05:56:43.052Z,99429.28
2018-01-02T05:59:11.420Z,99431.39
2018-01-02T06:01:39.769Z,99433.05
2018-01-02T06:04:08.116Z,99438.17
2018-01-02T06:06:36.488Z,99440.70
2018-01-02T06:09:04.854Z,99449.34
2018-01-02T06:11:33.215Z,99457.44
2018-01-02T06:14:01.568Z,99469.87
2018-01-02T06:16:29.936Z,99472.66
2018-01-02T06:18:58.722Z,99478.27
2018-01-02T06:21:27.490Z,99478.59
2018-01-02T06:23:55.938Z,99489.06
2018-01-02T06:26:24.283Z,99490.95
2018-01-02T06:28:53.349Z,99498.52
2018-01-02T06:31:21.784Z,99508.98
2018-01-02T06:33:50.152Z,99525.01
2018-01-02T06:36:18.564Z,99525.98
2018-01-02T06:38:46.918Z,99532.73
2018-01-02T06:41:15.288Z,99540.92
2018-01-02T06:43:43.656Z,99550.13
2018-01-02T06:46:12.105Z,99557.16
2018-01-02T06:48:40.954Z,99559.41
2018-01-02T06:51:09.332Z,99564.81
2018-01-02T06:53:37.683Z,99576.53
2018-01-02T06:56:06.042Z,99576.06
2018-01-02T06:58:35.104Z,99586.05
2018-01-02T07:01:03.566Z,99593.44
2018-01-02T07:03:31.939Z,99607.26
2018-01-02T07:06:00.289Z,99614.64
2018-01-02T07:08:29.496Z,99617.17
2018-01-02T07:10:58.005Z,99628.59
2018-01-02T07:13:26.372Z,99635.92
2018-01-02T07:15:54.756Z,99640.32
2018-01-02T07:18:23.104Z,99643.38
2018-01-02T07:20:51.512Z,99652.53
2018-01-02T07:23:19.883Z,99666.88
2018-01-02T07:25:48.287Z,99667.28
2018-01-02T07:28:16.627Z,99674.66
2018-01-02T07:30:45.036Z,99678.14
2018-01-02T07:33:13.381Z,99686.84
2018-01-02T07:35:41.734Z,99694.19
2018-01-02T07:38:10.471Z,99694.64
2018-01-02T07:40:38.831Z,99702.88
2018-01-02T07:43:07.196Z,99704.19
2018-01-02T07:45:35.586Z,99712.00
2018-01-02T07:48:03.934Z,99713.29
2018-01-02T07:50:32.680Z,99714.15
2018-01-02T07:53:01.027Z,99721.54
2018-01-02T07:55:29.378Z,99738.94
2018-01-02T07:57:58.224Z,99734.17
2018-01-02T08:00:26.585Z,99737.62
2018-01-02T08:02:54.984Z,99750.67
2018-01-02T08:05:23.355Z,99747.63
2018-01-02T08:07:51.701Z,99764.13
2018-01-02T08:10:20.109Z,99754.12
2018-01-02T08:12:48.456Z,99766.30
2018-01-02T08:15:16.842Z,99765.86
2018-01-02T08:17:45.189Z,99766.72
2018-01-02T08:20:14.036Z,99771.94
2018-01-02T08:22:42.395Z,99777.12
2018-01-02T08:25:10.765Z,99773.66
2018-01-02T08:27:39.117Z,99788.90
2018-01-02T08:30:07.960Z,99784.53
2018-01-02T08:32:36.308Z,99793.69
2018-01-02T08:35:04.668Z,99798.03
2018-01-02T08:37:33.416Z,99797.59
2018-01-02T08:40:01.760Z,99806.71
2018-01-02T08:42:30.159Z,99814.97
2018-01-02T08:44:58.500Z,99825.38
2018-01-02T08:47:26.927Z,99834.09
2018-01-02T08:49:55.283Z,99841.03
2018-01-02T08:52:23.634Z,99838.86
2018-01-02T08:54:52.367Z,99853.23
2018-01-02T08:57:20.727Z,99859.30
2018-01-02T08:59:49.076Z,99868.41
2018-01-02T09:02:17.487Z,99863.63
2018-01-02T09:04:45.851Z,99868.44
2018-01-02T09:07:14.206Z,99871.45
2018-01-02T09:09:42.576Z,99885.84
2018-01-02T09:12:16.902Z,99885.34
2018-01-02T09:14:49.447Z,99886.17
2018-01-02T09:17:17.787Z,99893.96
2018-01-02T09:19:46.188Z,99900.11
2018-01-02T09:22:14.568Z,99914.47
2018-01-02T09:24:42.935Z,99914.00
2018-01-02T09:27:11.295Z,99915.73
2018-01-02T09:29:39.651Z,99923.97
2018-01-02T09:32:08.383Z,99930.17
2018-01-02T09:34:36.722Z,99926.23
2018-01-02T09:37:05.083Z,99936.27
2018-01-02T09:39:33.908Z,99924.97
2018-01-02T09:42:02.308Z,99938.46
2018-01-02T09:44:30.663Z,99937.95
2018-01-02T09:46:59.060Z,99941.42
2018-01-02T09:49:27.450Z,99946.27
2018-01-02T09:51:55.799Z,99948.89
2018-01-02T09:54:24.168Z,99945.40
2018-01-02T09:56:52.584Z,99947.60
2018-01-02T09:59:21.039Z,99965.45
2018-01-02T10:01:49.387Z,99961.08
2018-01-02T10:04:18.124Z,99959.23
2018-01-02T10:06:46.468Z,99952.75
2018-01-02T10:09:14.884Z,99962.38
2018-01-02T10:11:43.263Z,99960.20
2018-01-02T10:14:11.617Z,99968.02
2018-01-02T10:16:39.973Z,99964.97
2018-01-02T10:19:08.711Z,99964.55
2018-01-02T10:21:37.086Z,99972.80
2018-01-02T10:24:05.437Z,99983.69
2018-01-02T10:26:33.850Z,99981.94
2018-01-02T10:29:02.216Z,99985.02
2018-01-02T10:31:30.604Z,99985.45
2018-01-02T10:33:58.967Z,99988.05
2018-01-02T10:36:27.363Z,99984.89
2018-01-02T10:38:55.709Z,99984.79
2018-01-02T10:41:24.195Z,99988.67
2018-01-02T10:43:52.572Z,99993.53
2018-01-02T10:46:20.923Z,99998.75
2018-01-02T10:48:49.765Z,99999.63
2018-01-02T10:51:18.132Z,100001.52
2018-01-02T10:53:46.503Z,100006.70
2018-01-02T10:56:14.915Z,100013.20
2018-01-02T10:58:43.287Z,100015.88
2018-01-02T11:04:05.824Z,100012.00
2018-01-02T11:06:34.252Z,100026.34
2018-01-02T11:09:02.616Z,100018.94
2018-01-02T11:11:31.895Z,100017.18
2018-01-02T11:14:00.280Z,100028.45
2018-01-02T11:16:28.664Z,100025.41
2018-01-02T11:18:57.040Z,100030.69
2018-01-02T11:21:25.401Z,100033.73
2018-01-02T11:23:53.762Z,100026.30
2018-01-02T11:26:22.152Z,100024.56
2018-01-02T11:28:50.518Z,100029.36
2018-01-02T11:31:18.931Z,100034.63
2018-01-02T11:33:47.324Z,100036.37
2018-01-02T11:36:15.676Z,100038.98
2018-01-02T11:38:44.034Z,100039.80
2018-01-02T11:41:12.392Z,100040.67
2018-01-02T11:43:41.296Z,100042.39
2018-01-02T11:46:09.736Z,100035.02
2018-01-02T11:48:38.195Z,100041.52
2018-01-02T11:51:06.575Z,100038.94
2018-01-02T11:53:35.059Z,100049.80
2018-01-02T11:56:03.536Z,100050.72
2018-01-02T11:58:31.893Z,100046.31
2018-01-02T12:01:00.240Z,100050.20
2018-01-02T12:03:29.005Z,100053.72
2018-01-02T12:05:57.368Z,100063.33
2018-01-02T12:08:25.743Z,100050.28
2018-01-02T12:10:54.104Z,100050.23
2018-01-02T12:13:22.526Z,100054.11
2018-01-02T12:15:50.895Z,100057.16
2018-01-02T12:18:19.268Z,100056.73
2018-01-02T12:20:47.641Z,100064.13
2018-01-02T12:23:15.999Z,100064.61
2018-01-02T12:25:44.387Z,100070.67
2018-01-02T12:28:12.747Z,100079.39
2018-01-02T12:30:41.107Z,100082.44
2018-01-02T12:33:09.932Z,100081.13
2018-01-02T12:35:38.304Z,100078.95
2018-01-02T12:38:06.671Z,100076.73
2018-01-02T12:40:35.031Z,100085.83
2018-01-02T12:43:03.404Z,100081.84
2018-01-02T12:45:32.158Z,100085.23
2018-01-02T12:48:00.507Z,100086.11
2018-01-02T12:50:28.932Z,100100.51
2018-01-02T12:52:57.288Z,100101.39
2018-01-02T12:55:25.763Z,100105.23
2018-01-02T12:57:54.572Z,100105.77
2018-01-02T13:00:22.931Z,100102.78
2018-01-02T13:02:51.309Z,100103.27
2018-01-02T13:05:19.683Z,100109.31
2018-01-02T13:07:48.185Z,100110.67
2018-01-02T13:10:16.583Z,100113.30
2018-01-02T13:12:44.923Z,100118.52
2018-01-02T13:15:13.299Z,100128.16
2018-01-02T13:17:41.666Z,100131.13
2018-01-02T13:20:10.078Z,100132.05
2018-01-02T13:22:38.441Z,100134.70
2018-01-02T13:25:06.950Z,100136.88
2018-01-02T13:27:35.814Z,100146.08
2018-01-02T13:30:04.194Z,100146.44
2018-01-02T13:32:32.561Z,100151.19
2018-01-02T13:35:00.948Z,100152.10
2018-01-02T13:37:29.304Z,100151.70
2018-01-02T13:39:57.647Z,100149.00
2018-01-02T13:42:26.407Z,100155.54
2018-01-02T13:44:54.872Z,100161.22
2018-01-02T13:47:23.253Z,100158.21
2018-01-02T13:49:51.607Z,100168.67
2018-01-02T13:52:19.961Z,100166.48
2018-01-02T13:54:48.705Z,100167.70
2018-01-02T13:57:17.176Z,100173.25
2018-01-02T13:59:45.554Z,100175.01
2018-01-02T14:02:13.911Z,100175.55
2018-01-02T14:04:42.307Z,100175.98
2018-01-02T14:07:10.667Z,100179.05
2018-01-02T14:09:39.020Z,100178.98
2018-01-02T14:12:07.847Z,100186.02
2018-01-02T14:14:36.191Z,100185.68
2018-01-02T14:17:04.552Z,100191.66
2018-01-02T14:19:32.938Z,100190.69
2018-01-02T14:22:01.771Z,100194.62
2018-01-02T14:24:30.168Z,100195.94
2018-01-02T14:26:58.627Z,100201.23
2018-01-02T14:29:26.981Z,100201.30
2018-01-02T14:31:55.332Z,100202.65
2018-01-02T14:34:24.185Z,100201.78
2018-01-02T14:36:52.533Z,100207.45
2018-01-02T14:39:20.887Z,100211.45
2018-01-02T14:41:49.627Z,100213.20
2018-01-02T14:44:18.008Z,100215.80
2018-01-02T14:46:46.364Z,100216.23
2018-01-02T14:49:14.772Z,100227.09
2018-01-02T14:51:43.119Z,100232.32
2018-01-02T14:54:11.511Z,100237.11
2018-01-02T14:56:39.873Z,100240.21
2018-01-02T14:59:08.240Z,100242.34
2018-01-02T15:01:36.665Z,100235.85
2018-01-02T15:04:05.011Z,100238.89
2018-01-02T15:06:33.408Z,100241.04
2018-01-02T15:09:01.796Z,100244.99
2018-01-02T15:11:30.154Z,100248.45
2018-01-02T15:13:58.543Z,100249.75
2018-01-02T15:16:26.901Z,100247.14
2018-01-02T15:18:55.316Z,100255.84
2018-01-02T15:21:23.856Z,100252.34
2018-01-02T15:23:52.199Z,100252.33
2018-01-02T15:26:20.569Z,100257.99
2018-01-02T15:28:49.035Z,100261.95
2018-01-02T15:31:17.401Z,100262.34
2018-01-02T15:33:45.753Z,100267.16
2018-01-02T15:36:14.204Z,100270.98
2018-01-02T15:38:43.065Z,100266.17
2018-01-02T15:41:11.444Z,100271.36
2018-01-02T15:43:39.952Z,100268.78
2018-01-02T15:46:08.709Z,100279.20
2018-01-02T15:48:37.051Z,100275.33
2018-01-02T15:51:05.464Z,100278.32
2018-01-02T15:53:33.808Z,100275.00
2018-01-02T15:56:02.279Z,100279.36
2018-01-02T15:58:30.676Z,100278.50
2018-01-02T16:00:59.026Z,100279.41
2018-01-02T16:03:27.775Z,100277.23
2018-01-02T16:05:56.150Z,100286.38
2018-01-02T16:08:24.491Z,100292.87
2018-01-02T16:10:52.891Z,100290.70
2018-01-02T16:13:21.248Z,100288.53
2018-01-02T16:15:49.620Z,100295.06
2018-01-02T16:18:18.012Z,100296.36
2018-01-02T16:20:46.359Z,100293.31
2018-01-02T16:23:14.801Z,100292.45
2018-01-02T16:25:43.155Z,100295.08
2018-01-02T16:28:11.511Z,100279.81
2018-01-02T16:30:39.916Z,100285.04
2018-01-02T16:33:08.322Z,100293.32
2018-01-02T16:35:36.704Z,100291.59
2018-01-02T16:38:05.073Z,100289.83
2018-01-02T16:40:33.484Z,100280.25
2018-01-02T16:43:01.847Z,100278.86
2018-01-02T16:45:30.227Z,100277.52
2018-01-02T16:47:58.565Z,100279.19
2018-01-02T16:50:27.067Z,100276.62
2018-01-02T16:52:55.428Z,100281.03
2018-01-02T16:55:23.795Z,100288.42
2018-01-02T16:57:52.203Z,100283.23
2018-01-02T17:00:20.523Z,100294.55
2018-01-02T17:02:49.910Z,100289.31
2018-01-02T17:05:18.315Z,100295.01
2018-01-02T17:07:47.151Z,100291.98
2018-01-02T17:10:15.513Z,100288.48
2018-01-02T17:12:43.909Z,100284.56
2018-01-02T17:15:12.255Z,100281.13
2018-01-02T17:17:40.672Z,100285.47
2018-01-02T17:20:09.046Z,100290.17
2018-01-02T17:22:37.394Z,100295.88
2018-01-02T17:25:05.810Z,100289.69
2018-01-02T17:27:34.156Z,100289.80
2018-01-02T17:30:02.536Z,100289.38
2018-01-02T17:32:30.896Z,100294.21
2018-01-02T17:34:59.307Z,100285.44
2018-01-02T17:37:27.672Z,100291.53
2018-01-02T17:39:56.025Z,100292.84
2018-01-02T17:42:24.917Z,100293.31
2018-01-02T17:44:53.667Z,100287.65
2018-01-02T17:47:22.015Z,100287.63
2018-01-02T17:49:50.362Z,100296.78
2018-01-02T17:52:19.117Z,100295.48
2018-01-02T17:54:47.464Z,100298.14
2018-01-02T17:57:15.821Z,100298.11
2018-01-02T17:59:44.169Z,100298.95
2018-01-02T18:02:12.970Z,100298.95
2018-01-02T18:04:41.840Z,100300.28
2018-01-02T18:07:10.196Z,100293.76
2018-01-02T18:09:38.564Z,100299.36
2018-01-02T18:12:06.914Z,100293.75
2018-01-02T18:14:35.282Z,100301.17
2018-01-02T18:17:03.649Z,100299.01
2018-01-02T18:19:33.205Z,100301.56
2018-01-02T18:22:01.583Z,100299.39
2018-01-02T18:24:29.962Z,100305.47
2018-01-02T18:26:59.175Z,100303.80
2018-01-02T18:29:27.551Z,100305.55
2018-01-02T18:31:55.916Z,100303.81
2018-01-02T18:34:24.396Z,100300.77
2018-01-02T18:36:52.839Z,100293.36
2018-01-02T18:39:21.164Z,100295.56
2018-01-02T18:41:49.519Z,100299.88
2018-01-02T18:44:17.875Z,100299.05
2018-01-02T18:46:46.218Z,100297.28
2018-01-02T18:49:14.753Z,100297.66
2018-01-02T18:51:43.156Z,100299.44
2018-01-02T18:54:11.523Z,100293.77
2018-01-02T18:56:39.904Z,100293.34
2018-01-02T18:59:08.260Z,100299.44
2018-01-02T19:01:36.680Z,100293.38
2018-01-02T19:04:05.044Z,100301.15
2018-01-02T19:06:33.419Z,100297.66
2018-01-02T19:09:01.801Z,100296.80
2018-01-02T19:11:30.185Z,100293.75
2018-01-02T19:13:58.546Z,100295.07
2018-01-02T19:16:26.882Z,100293.35
2018-01-02T19:18:55.772Z,100295.51
2018-01-02T19:21:24.151Z,100297.27
2018-01-02T19:23:52.992Z,100294.22
2018-01-02T19:26:21.390Z,100292.49
2018-01-02T19:28:49.870Z,100285.52
2018-01-02T19:31:18.235Z,100285.55
2018-01-02T19:33:46.632Z,100292.09
2018-01-02T19:36:14.984Z,100292.03
2018-01-02T19:38:43.340Z,100290.26
2018-01-02T19:41:11.683Z,100294.65
2018-01-02T19:43:40.040Z,100289.43
2018-01-02T19:46:08.409Z,100277.23
2018-01-02T19:48:36.771Z,100285.49
2018-01-02T19:51:05.172Z,100279.89
2018-01-02T19:53:33.537Z,100278.97
2018-01-02T19:56:01.963Z,100269.38
2018-01-02T19:58:30.726Z,100270.25
2018-01-02T20:00:59.183Z,100270.23
2018-01-02T20:03:27.536Z,100264.16
2018-01-02T20:05:55.956Z,100259.78
2018-01-02T20:08:24.308Z,100264.20
2018-01-02T20:10:52.709Z,100253.73
2018-01-02T20:13:21.107Z,100244.56
2018-01-02T20:15:49.759Z,100253.30
2018-01-02T20:18:23.751Z,100253.72
2018-01-02T20:20:52.156Z,100248.06
2018-01-02T20:23:20.535Z,100253.27
2018-01-02T20:25:48.967Z,100257.63
2018-01-02T20:28:17.703Z,100256.70
2018-01-02T20:30:46.076Z,100254.98
2018-01-02T20:33:14.460Z,100254.13
2018-01-02T20:35:42.871Z,100255.45
2018-01-02T20:38:11.291Z,100239.31
2018-01-02T20:40:39.708Z,100231.45
2018-01-02T20:43:08.123Z,100233.20
2018-01-02T20:45:36.968Z,100248.02
2018-01-02T20:48:05.336Z,100244.47
2018-01-02T20:50:34.020Z,100248.40
2018-01-02T20:53:02.416Z,100241.02
2018-01-02T20:55:30.785Z,100242.72
2018-01-02T20:57:59.171Z,100245.73
2018-01-02T21:00:27.547Z,100256.49
2018-01-02T21:02:55.905Z,100254.37
2018-01-02T21:05:24.334Z,100255.73
2018-01-02T21:07:52.746Z,100254.83
2018-01-02T21:10:21.115Z,100253.45
2018-01-02T21:12:49.463Z,100249.05
2018-01-02T21:15:17.812Z,100245.46
2018-01-02T21:17:46.166Z,100248.08
2018-01-02T21:20:14.623Z,100245.84
2018-01-02T21:22:43.384Z,100248.80
2018-01-02T21:25:11.735Z,100240.61
2018-01-02T21:27:40.141Z,100241.27
2018-01-02T21:30:08.500Z,100230.70
2018-01-02T21:32:36.892Z,100225.06
2018-01-02T21:35:05.270Z,100220.83
2018-01-02T21:37:33.648Z,100212.08
2018-01-02T21:40:02.036Z,100205.69
2018-01-02T21:42:30.418Z,100196.55
2018-01-02T21:44:58.776Z,100192.58
2018-01-02T21:47:27.156Z,100191.70
2018-01-02T21:49:55.612Z,100194.17
2018-01-02T21:52:24.027Z,100197.40
2018-01-02T21:54:52.535Z,100189.19
2018-01-02T21:57:20.987Z,100177.49
2018-01-02T21:59:49.695Z,100181.70
2018-01-02T22:02:18.038Z,100178.23
2018-01-02T22:04:46.488Z,100174.80
2018-01-02T22:07:15.597Z,100172.95
2018-01-02T22:09:43.955Z,100169.97
2018-01-02T22:12:12.375Z,100161.30
2018-01-02T22:14:40.732Z,100152.68
2018-01-02T22:17:09.131Z,100152.66
2018-01-02T22:19:37.516Z,100154.59
2018-01-02T22:22:05.909Z,100147.66
2018-01-02T22:24:34.263Z,100139.88
2018-01-02T22:27:02.624Z,100143.59
2018-01-02T22:29:31.139Z,100141.02
2018-01-02T22:31:59.513Z,100133.16
2018-01-02T22:34:27.864Z,100126.50
2018-01-02T22:36:56.235Z,100116.11
2018-01-02T22:39:24.643Z,100118.96
2018-01-02T22:41:53.139Z,100118.09
2018-01-02T22:44:21.485Z,100114.53
2018-01-02T22:46:49.885Z,100106.16
2018-01-02T22:49:18.303Z,100100.45
2018-01-02T22:51:47.111Z,100097.13
2018-01-02T22:54:15.846Z,100086.56
2018-01-02T22:56:44.210Z,100076.91
2018-01-02T22:59:12.647Z,100076.45
2018-01-02T23:01:41.078Z,100071.75
2018-01-02T23:04:09.428Z,100064.78
2018-01-02T23:06:37.774Z,100058.66
2018-01-02T23:09:06.534Z,100053.55
2018-01-02T23:11:34.923Z,100052.61
2018-01-02T23:14:03.302Z,100051.88
2018-01-02T23:16:31.669Z,100040.90
2018-01-02T23:19:00.118Z,100045.09
2018-01-02T23:21:28.525Z,100038.44
2018-01-02T23:23:56.875Z,100035.02
2018-01-02T23:26:25.244Z,100035.49
2018-01-02T23:28:53.596Z,100027.84
2018-01-02T23:31:22.445Z,100022.92
2018-01-02T23:33:50.791Z,100014.73
2018-01-02T23:36:19.147Z,100007.03
2018-01-02T23:38:47.518Z,100000.25
2018-01-02T23:41:15.959Z,99998.58
2018-01-02T23:43:44.327Z,99979.61
2018-01-02T23:46:12.679Z,99974.18
2018-01-02T23:48:41.023Z,99973.09
2018-01-02T23:51:09.468Z,99968.31
2018-01-02T23:53:37.871Z,99964.37
2018-01-02T23:56:06.335Z,99957.37
2018-01-02T23:58:34.684Z,99944.84
